To NAV CANADA Home Page Login to a new session Search on AWWS site Feedback and Comments Disclaimer Vers la page française équivalente Tips FAQ What's new on the site To the Forecasts and Observations / NOTAM section To "File a Flight Plan" website Publications and other links Update of the User's profile FIC Telephone Numbers My Weather Data Folder Route Weather Data Regional Weather Data Local Weather Data To the Forecasts and Observations / NOTAM section
Request Generated 03/28/2017 at 02:17:07 UTC . Weather information available at that time is displayed.

METAR/TAF

TRENTON/ON    

METAR CYTR 280200Z 24002KT 3/8SM FG OVC002 06/05 A2990 RMK ST8 SLP128=
SPECI CYTR 280140Z 22004KT 3/8SM FG BKN002 OVC013 06/05 A2990 RMK SF5SC3 SLP128=
SPECI CYTR 280131Z 22004KT 1/2SM FG BKN002 OVC013 06/05 A2990 RMK SF5SC3 SLP128=
SPECI CYTR 280126Z 22004KT 1SM BR BKN002 OVC013 06/05 A2990 RMK SF5SC3 SLP128=
SPECI CYTR 280113Z 21004KT 3SM BR BKN002 OVC013 06/05 A2990 RMK SF5SC3 VIS VRB 21/4-4 SLP127=
METAR CYTR 280100Z 21004KT 4SM BR FEW002 BKN013 OVC074 06/05 A2989 RMK SF2SC3AC2 SLP127=
SPECI CYTR 280015Z 19002KT 3SM BR SCT002 BKN025 OVC074 07/06 A2989 RMK ST3SC3AC2 SLP124=
SPECI CYTR 280011Z 20003KT 1 1/2SM BR SCT006 BKN025 OVC074 07/06 A2989 RMK ST3SC3AC2 SLP124=
METAR CYTR 280000Z 00000KT 3/8SM FG SCT006 OVC025 06/05 A2988 RMK ST3SC5 SLP121=

TAF CYTR 272330Z 2800/2824 22005KT 1/4SM FG VV002 TEMPO 2800/2804 3SM
BR OVC020
FM280400 22005KT 2SM -DZ BR BKN006 OVC020
FM281200 28005KT P6SM SCT006 BKN015 OVC030
FM281500 32008KT P6SM SCT015 BKN030
RMK NXT FCST BY 280600Z=
Your time UTC time
Weather data provided by Environment Canada and NAV CANADA